This is the latest recevied weather packets stored in our database for station/object XE2G-31. If no packets are shown the sender has not sent any weather packets the latest 10 day(s).
| Time | Temp. | Humidity | Pressure | Rain* | Wind** | Luminosity | Snow |
|---|---|---|---|---|---|---|---|
| 1777998217 | 29.44° C | 30% | 869 hPa | - | - | - | - |
| 1777997270 | 28.33° C | 34% | 869 hPa | - | - | - | - |
| 1777996323 | 27.78° C | 33% | 869 hPa | - | - | - | - |
| 1777995376 | 26.11° C | 38% | 869 hPa | - | - | - | - |
| 1777994430 | 25.56° C | 40% | 869 hPa | - | - | - | - |
| 1777993483 | 25.56° C | 41% | 869 hPa | - | - | - | - |
| 1777992536 | 24.44° C | 42% | 869 hPa | - | - | - | - |
| 1777991589 | 24.44° C | 44% | 869 hPa | - | - | - | - |
| 1777990642 | 24.44° C | 43% | 869 hPa | - | - | - | - |
| 1777989696 | 23.33° C | 47% | 868 hPa | - | - | - | - |
| 1777988749 | 24.44° C | 46% | 868 hPa | - | - | - | - |
| 1777987802 | 24.44° C | 45% | 868 hPa | - | - | - | - |
| 1777986855 | 24.44° C | 47% | 868 hPa | - | - | - | - |
| 1777985909 | 22.78° C | 51% | 868 hPa | - | - | - | - |
| 1777984961 | 22.22° C | 55% | 868 hPa | - | - | - | - |
| 1777984015 | 20.56° C | 64% | 868 hPa | - | - | - | - |
| 1777983069 | 20.56° C | 61% | 868 hPa | - | - | - | - |
| 1777982121 | 20.56° C | 61% | 868 hPa | - | - | - | - |
| 1777981174 | 20.56° C | 63% | 868 hPa | - | - | - | - |
| 1777980228 | 19.44° C | 70% | 867 hPa | - | - | - | - |
| 1777979280 | 19.44° C | 73% | 867 hPa | - | - | - | - |
| 1777978334 | 18.89° C | 80% | 868 hPa | - | - | - | - |
| 1777977387 | 17.78° C | 89% | 868 hPa | - | - | - | - |
| 1777976440 | 18.33° C | 86% | 868 hPa | - | - | - | - |
| 1777975493 | 18.33° C | 87% | 868 hPa | - | - | - | - |
* Rain since midnight (hover to see other rain measurements)
** Current wind speed in m/s (hover to see current wind gust speed)